createdAt,value
2018-05-10T00:02:03.535Z,44.9
2018-05-10T00:07:03.566Z,44.9
2018-05-10T00:12:03.301Z,45.0
2018-05-10T00:17:03.771Z,45.0
2018-05-10T00:22:03.765Z,45.0
2018-05-10T00:27:03.187Z,44.8
2018-05-10T00:32:03.763Z,45.0
2018-05-10T00:37:03.710Z,45.0
2018-05-10T00:42:03.077Z,45.0
2018-05-10T00:47:03.693Z,45.1
2018-05-10T00:52:03.537Z,45.1
2018-05-10T00:57:03.094Z,45.1
2018-05-10T01:02:03.597Z,44.9
2018-05-10T01:07:03.529Z,45.0
2018-05-10T01:12:03.108Z,45.0
2018-05-10T01:17:03.696Z,45.0
2018-05-10T01:22:03.855Z,45.0
2018-05-10T01:27:03.645Z,45.0
2018-05-10T01:32:03.368Z,45.1
2018-05-10T01:37:03.919Z,45.0
2018-05-10T01:42:03.439Z,45.1
2018-05-10T01:47:03.097Z,45.1
2018-05-10T01:52:03.458Z,45.3
2018-05-10T01:57:03.843Z,45.2
2018-05-10T02:02:03.350Z,45.0
2018-05-10T02:07:03.353Z,45.0
2018-05-10T02:12:03.958Z,45.2
2018-05-10T02:17:03.645Z,45.4
2018-05-10T02:22:03.842Z,45.1
2018-05-10T02:27:03.489Z,45.1
2018-05-10T02:32:03.214Z,45.1
2018-05-10T02:37:03.492Z,44.8
2018-05-10T02:42:03.452Z,44.8
2018-05-10T02:47:03.929Z,45.3
2018-05-10T02:52:03.663Z,45.2
2018-05-10T02:57:03.744Z,45.3
2018-05-10T03:02:03.937Z,45.3
2018-05-10T03:07:03.270Z,45.0
2018-05-10T03:12:03.498Z,45.0
2018-05-10T03:17:07.053Z,45.4
2018-05-10T03:22:03.791Z,45.3
2018-05-10T03:27:03.889Z,45.5
2018-05-10T03:32:16.850Z,45.2
2018-05-10T03:37:03.426Z,45.2
2018-05-10T03:42:03.573Z,45.3
2018-05-10T03:47:22.921Z,45.5
2018-05-10T03:52:03.598Z,45.5
2018-05-10T03:57:03.693Z,45.7
2018-05-10T04:02:23.601Z,45.6
2018-05-10T04:07:03.707Z,45.8
2018-05-10T04:12:03.399Z,45.6
2018-05-10T04:17:19.166Z,46.1
2018-05-10T04:22:03.189Z,45.8
2018-05-10T04:27:03.558Z,46.0
2018-05-10T04:32:22.745Z,45.9
2018-05-10T04:37:02.982Z,46.2
2018-05-10T04:42:03.231Z,45.7
2018-05-10T04:47:24.671Z,45.7
2018-05-10T04:52:03.468Z,45.8
2018-05-10T04:57:03.596Z,46.0
2018-05-10T05:02:19.853Z,46.2
2018-05-10T05:07:03.110Z,46.0
2018-05-10T05:12:03.450Z,45.8
2018-05-10T05:17:20.011Z,45.8
2018-05-10T05:22:03.716Z,45.7
2018-05-10T05:27:03.864Z,46.1
2018-05-10T05:32:20.877Z,46.0
2018-05-10T05:37:03.367Z,45.9
2018-05-10T05:42:03.551Z,45.8
2018-05-10T05:47:21.793Z,46.5
2018-05-10T05:52:03.025Z,46.5
2018-05-10T05:57:03.127Z,46.5
2018-05-10T06:02:22.525Z,46.5
2018-05-10T06:07:03.665Z,46.4
2018-05-10T06:12:03.893Z,46.5
2018-05-10T06:17:20.106Z,46.4
2018-05-10T06:22:03.343Z,46.4
2018-05-10T06:27:03.519Z,46.3
2018-05-10T06:32:20.551Z,46.5
2018-05-10T06:37:03.024Z,46.5
2018-05-10T06:42:03.176Z,46.5
2018-05-10T06:47:23.926Z,46.4
2018-05-10T06:52:03.667Z,46.7
2018-05-10T06:57:03.764Z,46.6
2018-05-10T07:02:21.223Z,46.7
2018-05-10T07:07:03.396Z,46.6
2018-05-10T07:12:03.652Z,46.7
2018-05-10T07:17:20.660Z,46.7
2018-05-10T07:22:03.044Z,46.7
2018-05-10T07:27:03.204Z,46.9
2018-05-10T07:32:28.540Z,47.0
2018-05-10T07:37:03.692Z,47.0
2018-05-10T07:42:03.993Z,47.2
2018-05-10T07:47:21.156Z,47.4
2018-05-10T07:52:03.230Z,47.3
2018-05-10T07:57:03.371Z,47.4
2018-05-10T08:02:25.132Z,47.5
2018-05-10T08:07:03.806Z,47.4
2018-05-10T08:12:03.097Z,47.5
2018-05-10T08:17:21.796Z,47.5
2018-05-10T08:22:03.636Z,47.5
2018-05-10T08:27:03.832Z,47.4
2018-05-10T08:32:24.689Z,47.5
2018-05-10T08:37:03.344Z,47.4
2018-05-10T08:42:03.622Z,47.4
2018-05-10T08:47:24.685Z,47.3
2018-05-10T08:52:03.125Z,47.4
2018-05-10T08:57:03.198Z,47.3
2018-05-10T09:07:03.743Z,47.4
2018-05-10T09:12:03.026Z,47.5
2018-05-10T09:17:20.151Z,47.5
2018-05-10T09:22:03.541Z,47.5
2018-05-10T09:27:03.674Z,47.5
2018-05-10T09:32:20.835Z,47.5
2018-05-10T09:37:03.096Z,47.5
2018-05-10T09:42:03.240Z,47.5
2018-05-10T09:47:24.337Z,47.7
2018-05-10T09:52:03.812Z,47.9
2018-05-10T09:57:03.943Z,47.6
2018-05-10T10:02:23.401Z,47.4
2018-05-10T10:07:03.695Z,47.4
2018-05-10T10:12:04.006Z,47.3
2018-05-10T10:17:24.644Z,47.3
2018-05-10T10:22:03.443Z,47.3
2018-05-10T10:27:03.678Z,47.2
2018-05-10T10:32:24.222Z,47.2
2018-05-10T10:37:03.001Z,47.4
2018-05-10T10:42:03.232Z,47.1
2018-05-10T10:47:36.723Z,47.0
2018-05-10T10:52:03.802Z,47.1
2018-05-10T10:57:02.937Z,47.1
2018-05-10T11:02:26.202Z,46.9
2018-05-10T11:07:03.686Z,46.9
2018-05-10T11:12:03.944Z,46.4
2018-05-10T11:17:18.533Z,46.3
2018-05-10T11:22:03.513Z,46.2
2018-05-10T11:27:03.781Z,46.1
2018-05-10T11:32:21.314Z,45.9
2018-05-10T11:37:03.508Z,46.0
2018-05-10T11:42:03.667Z,46.6
2018-05-10T11:47:23.936Z,46.6
2018-05-10T11:52:03.806Z,46.6
2018-05-10T11:57:02.943Z,46.6
2018-05-10T12:02:18.831Z,47.1
2018-05-10T12:07:03.307Z,47.0
2018-05-10T12:12:03.556Z,46.8
2018-05-10T12:17:23.368Z,48.2
2018-05-10T12:22:03.285Z,47.1
2018-05-10T12:27:03.463Z,47.1
2018-05-10T12:32:24.279Z,47.1
2018-05-10T12:37:03.537Z,47.4
2018-05-10T12:42:03.735Z,47.5
2018-05-10T12:47:24.295Z,48.0
2018-05-10T12:52:03.408Z,49.5
2018-05-10T12:57:03.588Z,49.4
2018-05-10T13:02:25.166Z,49.3
2018-05-10T13:07:03.862Z,49.6
2018-05-10T13:12:03.212Z,50.7
2018-05-10T13:17:25.397Z,50.6
2018-05-10T13:22:03.762Z,50.3
2018-05-10T13:27:03.859Z,49.8
2018-05-10T13:32:03.291Z,49.8
2018-05-10T13:37:03.325Z,48.8
2018-05-10T13:42:03.419Z,48.4
2018-05-10T13:47:24.401Z,48.0
2018-05-10T13:52:03.845Z,47.8
2018-05-10T13:57:03.027Z,47.7
2018-05-10T14:02:21.575Z,50.6
2018-05-10T14:07:03.817Z,50.4
2018-05-10T14:12:03.013Z,50.8
2018-05-10T14:17:25.355Z,50.5
2018-05-10T14:22:03.675Z,50.5
2018-05-10T14:27:03.730Z,50.5
2018-05-10T14:32:24.162Z,50.9
2018-05-10T14:37:03.054Z,50.9
2018-05-10T14:42:03.139Z,50.2
2018-05-10T14:47:19.811Z,50.0
2018-05-10T14:52:03.599Z,50.0
2018-05-10T14:57:03.755Z,50.0
2018-05-10T15:02:22.154Z,49.3
2018-05-10T15:07:03.302Z,49.1
2018-05-10T15:12:03.556Z,49.2
2018-05-10T15:17:25.271Z,49.1
2018-05-10T15:22:02.961Z,48.7
2018-05-10T15:27:03.165Z,48.7
2018-05-10T15:32:24.663Z,48.7
2018-05-10T15:37:03.548Z,48.8
2018-05-10T15:42:03.794Z,48.8
2018-05-10T15:47:27.623Z,48.7
2018-05-10T15:52:03.335Z,48.8
2018-05-10T15:57:03.593Z,48.7
2018-05-10T16:02:20.519Z,48.7
2018-05-10T16:07:03.136Z,48.7
2018-05-10T16:12:03.338Z,48.6
2018-05-10T16:17:21.843Z,48.5
2018-05-10T16:22:03.862Z,48.5
2018-05-10T16:27:03.844Z,48.5
2018-05-10T16:32:22.577Z,48.7
2018-05-10T16:37:03.307Z,48.6
2018-05-10T16:42:03.417Z,48.5
2018-05-10T16:47:23.996Z,48.6
2018-05-10T16:52:03.755Z,48.7
2018-05-10T16:57:02.938Z,48.5
2018-05-10T17:02:19.957Z,48.8
2018-05-10T17:07:03.589Z,48.7
2018-05-10T17:12:03.884Z,48.7
2018-05-10T17:17:23.647Z,48.5
2018-05-10T17:22:03.645Z,48.6
2018-05-10T17:27:03.860Z,48.6
2018-05-10T17:32:20.128Z,48.7
2018-05-10T17:37:03.667Z,48.8
2018-05-10T17:42:03.798Z,48.8
2018-05-10T17:47:22.379Z,48.7
2018-05-10T17:52:03.043Z,48.8
2018-05-10T17:57:03.223Z,48.6
2018-05-10T18:02:23.666Z,48.5
2018-05-10T18:07:03.783Z,48.5
2018-05-10T18:12:03.939Z,48.6
2018-05-10T18:17:20.296Z,48.6
2018-05-10T18:22:03.464Z,48.6
2018-05-10T18:27:03.693Z,48.6
2018-05-10T18:32:19.065Z,48.7
2018-05-10T18:37:03.737Z,48.7
2018-05-10T18:42:03.839Z,48.6
2018-05-10T18:47:19.971Z,48.9
2018-05-10T18:52:03.626Z,49.0
2018-05-10T18:57:03.342Z,49.0
2018-05-10T19:02:23.734Z,50.0
2018-05-10T19:07:03.293Z,49.2
2018-05-10T19:12:03.618Z,49.4
2018-05-10T19:17:20.058Z,49.4
2018-05-10T19:22:03.035Z,49.4
2018-05-10T19:27:03.308Z,49.5
2018-05-10T19:32:07.265Z,49.4
2018-05-10T19:37:03.654Z,49.4
2018-05-10T19:42:03.724Z,49.3
2018-05-10T19:47:04.169Z,49.4
2018-05-10T19:52:03.055Z,49.3
2018-05-10T19:57:03.372Z,49.4
2018-05-10T20:02:03.777Z,49.4
2018-05-10T20:07:03.546Z,49.3
2018-05-10T20:12:03.798Z,49.2
2018-05-10T20:17:04.066Z,49.3
2018-05-10T20:22:03.142Z,49.3
2018-05-10T20:27:03.277Z,49.4
2018-05-10T20:32:03.789Z,49.4
2018-05-10T20:37:03.533Z,49.4
2018-05-10T20:42:03.605Z,49.4
2018-05-10T20:47:03.741Z,49.6
2018-05-10T20:52:03.791Z,49.5
2018-05-10T20:57:03.858Z,49.7
2018-05-10T21:02:03.099Z,49.8
2018-05-10T21:07:03.478Z,49.7
2018-05-10T21:12:03.621Z,49.8
2018-05-10T21:17:03.808Z,49.8
2018-05-10T21:22:03.869Z,49.7
2018-05-10T21:27:03.923Z,49.7
2018-05-10T21:32:03.314Z,49.7
2018-05-10T21:37:03.316Z,49.6
2018-05-10T21:42:03.459Z,49.6
2018-05-10T21:47:03.511Z,49.6
2018-05-10T21:52:03.646Z,49.5
2018-05-10T21:57:03.735Z,49.4
2018-05-10T22:02:04.000Z,49.4
2018-05-10T22:07:03.317Z,49.4
2018-05-10T22:12:03.563Z,49.4
2018-05-10T22:22:04.068Z,49.5
2018-05-10T22:27:03.175Z,49.8
2018-05-10T22:32:03.959Z,49.6
2018-05-10T22:37:03.636Z,49.5
2018-05-10T22:42:03.444Z,49.5
2018-05-10T22:47:04.012Z,49.4
2018-05-10T22:52:03.600Z,49.5
2018-05-10T22:57:03.328Z,49.4
2018-05-10T23:02:03.075Z,49.5
2018-05-10T23:07:03.377Z,49.6
2018-05-10T23:12:03.215Z,49.3
2018-05-10T23:17:03.866Z,49.2
2018-05-10T23:22:03.209Z,49.2
2018-05-10T23:27:03.916Z,49.3
2018-05-10T23:32:03.392Z,49.3
2018-05-10T23:37:03.124Z,49.2
2018-05-10T23:42:03.642Z,49.3
2018-05-10T23:47:03.192Z,49.2
2018-05-10T23:52:03.490Z,49.3
2018-05-10T23:57:02.978Z,49.2
